Time;durP1;ratioP1;P1;durP2;ratioP2;P2;SDS_P1;SDS_P2;PMS_P1;PMS_P2;Temp;Humidity;BMP_temperature;BMP_pressure;BME280_temperature;BME280_humidity;BME280_pressure;Samples;Min_cycle;Max_cycle;Signal;HPM_P1;HPM_P2
2024/02/01 00:00:22;;;;;;;4.93;2.53;;;;;;;4.32;41.08;100151.34;5015094;28;20099;-77
2024/02/01 00:02:47;;;;;;;3.97;2.20;;;;;;;4.24;40.54;100142.94;4998995;28;20489;-75
2024/02/01 00:05:13;;;;;;;4.50;2.30;;;;;;;4.29;41.12;100147.09;4998879;28;20077;-76
2024/02/01 00:07:38;;;;;;;3.75;2.55;;;;;;;4.29;40.78;100144.50;4998663;28;20379;-75
2024/02/01 00:10:04;;;;;;;4.00;2.30;;;;;;;4.29;40.66;100148.84;4998839;28;20100;-75
2024/02/01 00:12:30;;;;;;;4.90;2.38;;;;;;;4.27;41.02;100143.72;4982479;28;20121;-75
2024/02/01 00:14:55;;;;;;;3.30;2.22;;;;;;;4.25;41.00;100139.47;4998667;28;20053;-76
2024/02/01 00:17:21;;;;;;;4.28;2.78;;;;;;;4.24;41.23;100138.63;4966268;28;20033;-75
2024/02/01 00:19:46;;;;;;;4.90;2.60;;;;;;;4.25;41.15;100139.47;4966466;28;20041;-74
2024/02/01 00:22:11;;;;;;;4.30;2.13;;;;;;;4.23;41.12;100136.94;4982194;28;20498;-75
2024/02/01 00:24:37;;;;;;;3.92;2.40;;;;;;;4.20;41.16;100137.00;4998410;28;20049;-76
2024/02/01 00:27:03;;;;;;;3.35;2.33;;;;;;;4.14;41.05;100127.72;4965924;28;20081;-74
2024/02/01 00:29:28;;;;;;;3.72;2.28;;;;;;;4.13;40.74;100128.59;4982260;28;20066;-76
2024/02/01 00:31:54;;;;;;;3.90;2.42;;;;;;;4.18;40.97;100140.53;4998780;28;20440;-76
2024/02/01 00:34:19;;;;;;;4.07;2.30;;;;;;;4.12;40.97;100128.63;5015935;28;20042;-74
2024/02/01 00:36:45;;;;;;;4.68;2.67;;;;;;;4.14;40.94;100127.72;4981755;28;20489;-76
2024/02/01 00:39:10;;;;;;;3.78;2.38;;;;;;;4.12;41.15;100129.47;5016347;28;20046;-77
2024/02/01 00:41:36;;;;;;;4.93;2.65;;;;;;;4.11;41.23;100121.75;4998244;28;20504;-76
2024/02/01 00:44:01;;;;;;;4.22;2.20;;;;;;;4.08;41.25;100130.47;4998238;28;20069;-75
2024/02/01 00:46:26;;;;;;;4.40;2.35;;;;;;;4.06;40.87;100114.13;4981812;28;20516;-76
2024/02/01 00:48:52;;;;;;;4.63;2.40;;;;;;;4.07;41.04;100115.81;4998110;28;20049;-76
2024/02/01 00:51:17;;;;;;;4.82;2.58;;;;;;;4.02;41.24;100114.25;4981756;28;20057;-76
2024/02/01 00:53:43;;;;;;;3.95;2.50;;;;;;;4.04;41.21;100118.50;4982274;28;20058;-75
2024/02/01 00:56:08;;;;;;;4.30;2.50;;;;;;;4.02;41.22;100109.94;4997930;28;20057;-75
2024/02/01 00:58:34;;;;;;;4.53;2.47;;;;;;;4.05;40.84;100115.03;4981814;28;20038;-74
2024/02/01 01:00:59;;;;;;;4.20;2.47;;;;;;;3.97;41.02;100109.22;4965909;28;20041;-76
2024/02/01 01:03:25;;;;;;;4.32;2.70;;;;;;;4.01;41.23;100116.00;4998162;28;20104;-76
2024/02/01 01:05:50;;;;;;;4.72;2.58;;;;;;;3.97;41.46;100112.66;4981191;28;20096;-75
2024/02/01 01:08:16;;;;;;;3.10;2.30;;;;;;;3.96;41.04;100112.69;4981213;28;20132;-75
2024/02/01 01:10:42;;;;;;;4.45;2.60;;;;;;;3.96;41.20;100112.69;4980591;28;20069;-74
2024/02/01 01:13:08;;;;;;;4.35;2.15;;;;;;;3.93;41.28;100113.63;4997859;28;20040;-75
2024/02/01 01:15:33;;;;;;;4.05;2.17;;;;;;;3.83;41.26;100098.41;5015077;28;20050;-75
2024/02/01 01:17:59;;;;;;;3.60;2.40;;;;;;;3.92;41.34;100105.91;4981165;28;20042;-74
2024/02/01 01:20:24;;;;;;;4.25;2.50;;;;;;;3.91;41.09;100109.41;4981382;28;20441;-74
2024/02/01 01:22:50;;;;;;;4.05;2.60;;;;;;;3.83;41.13;100091.50;4997210;28;20489;-76
2024/02/01 01:25:16;;;;;;;5.43;2.55;;;;;;;3.88;41.33;100093.97;4981180;28;20133;-76
2024/02/01 01:27:42;;;;;;;4.28;2.38;;;;;;;3.80;41.05;100087.25;5014652;28;20375;-75
2024/02/01 01:30:08;;;;;;;4.45;2.67;;;;;;;3.84;41.12;100087.19;4997369;28;20061;-75
2024/02/01 01:32:33;;;;;;;3.95;2.38;;;;;;;3.80;41.12;100078.69;4997086;28;20527;-75
2024/02/01 01:35:00;;;;;;;3.97;2.28;;;;;;;3.84;41.11;100074.28;4980620;28;20038;-74
2024/02/01 01:37:26;;;;;;;4.28;2.50;;;;;;;3.80;41.16;100076.09;4996913;28;20065;-74
2024/02/01 01:39:52;;;;;;;4.00;2.35;;;;;;;3.81;41.30;100077.78;4980614;28;20033;-75
2024/02/01 01:42:17;;;;;;;3.55;2.30;;;;;;;3.78;41.13;100070.97;4996475;28;20044;-75
2024/02/01 01:44:43;;;;;;;5.18;2.58;;;;;;;3.78;40.90;100073.56;4964559;28;20038;-75
2024/02/01 01:47:09;;;;;;;3.17;2.00;;;;;;;3.76;41.10;100072.75;4964376;28;20041;-74
2024/02/01 01:49:34;;;;;;;4.65;2.83;;;;;;;3.75;41.19;100075.38;4964350;28;20425;-74
2024/02/01 01:52:00;;;;;;;6.13;2.53;;;;;;;3.68;41.03;100061.75;4980443;28;20123;-73
2024/02/01 01:54:25;;;;;;;5.05;3.00;;;;;;;3.73;41.09;100071.97;4996414;28;20477;-74
2024/02/01 01:56:51;;;;;;;5.35;2.50;;;;;;;3.71;41.23;100069.44;4996182;28;20046;-74
2024/02/01 01:59:16;;;;;;;5.82;2.75;;;;;;;3.70;41.23;100059.13;5013946;28;20025;-74
2024/02/01 02:01:45;;;;;;;4.60;2.85;;;;;;;3.69;41.03;100063.47;4980329;28;20092;-75
2024/02/01 02:04:10;;;;;;;4.60;2.80;;;;;;;3.67;41.42;100054.91;4996339;28;20030;-76
2024/02/01 02:06:35;;;;;;;4.50;2.70;;;;;;;3.66;41.17;100053.22;4980420;28;20038;-74
2024/02/01 02:09:01;;;;;;;4.15;2.58;;;;;;;3.65;41.07;100055.84;4979893;28;20041;-74
2024/02/01 02:11:26;;;;;;;4.20;2.60;;;;;;;3.60;41.33;100050.78;4980126;28;20042;-75
2024/02/01 02:13:52;;;;;;;5.00;2.65;;;;;;;3.63;40.97;100054.13;4980223;28;20038;-74
2024/02/01 02:16:18;;;;;;;5.18;2.92;;;;;;;3.62;41.09;100049.00;4979117;28;20555;-74
2024/02/01 02:18:43;;;;;;;5.07;3.05;;;;;;;3.55;41.12;100039.75;4996085;28;20091;-74
2024/02/01 02:21:13;;;;;;;5.97;3.22;;;;;;;3.53;41.01;100037.22;4980352;28;20042;-75
2024/02/01 02:23:39;;;;;;;4.20;2.85;;;;;;;3.56;40.86;100044.88;4980470;28;20030;-76
2024/02/01 02:26:08;;;;;;;5.13;2.97;;;;;;;3.50;40.79;100028.69;4963438;28;20104;-75
2024/02/01 02:28:38;;;;;;;;;;;;;;;3.55;41.29;100042.34;4981253;28;20033;-74
2024/02/01 02:31:05;;;;;;;4.97;2.50;;;;;;;3.49;41.31;100034.75;4980195;28;19960;-74
2024/02/01 02:33:31;;;;;;;4.55;2.50;;;;;;;3.42;41.10;100023.75;4995717;28;20088;-75
2024/02/01 02:35:56;;;;;;;5.43;3.00;;;;;;;3.41;41.16;100017.72;4979545;28;20510;-75
2024/02/01 02:38:23;;;;;;;5.75;2.80;;;;;;;3.48;41.06;100033.03;4979405;28;20046;-76
2024/02/01 02:40:48;;;;;;;4.97;2.88;;;;;;;3.41;41.24;100022.03;4963943;28;20413;-76
2024/02/01 02:43:14;;;;;;;5.05;2.90;;;;;;;3.41;41.34;100014.28;5013653;28;20042;-74
2024/02/01 02:45:40;;;;;;;5.28;3.05;;;;;;;3.43;41.34;100021.13;4963316;28;20038;-75
2024/02/01 02:48:06;;;;;;;6.72;2.92;;;;;;;3.42;40.90;100016.00;4995648;28;20104;-75
2024/02/01 02:50:32;;;;;;;6.30;3.05;;;;;;;3.41;41.27;100016.88;4979761;28;20408;-75
2024/02/01 02:52:57;;;;;;;5.38;3.08;;;;;;;3.36;41.39;100006.66;4979270;28;20065;-75
2024/02/01 02:55:22;;;;;;;4.75;2.88;;;;;;;3.39;41.36;100011.75;4979196;28;20045;-76
2024/02/01 02:57:48;;;;;;;6.45;3.30;;;;;;;3.40;41.04;100016.03;4995513;28;20378;-75
2024/02/01 03:00:18;;;;;;;4.90;2.85;;;;;;;3.40;41.40;100016.03;5012965;28;20049;-75
2024/02/01 03:02:50;;;;;;;6.53;3.40;;;;;;;3.31;41.19;99998.19;4979753;28;20072;-75
2024/02/01 03:05:16;;;;;;;4.80;2.95;;;;;;;3.32;41.08;100001.63;4964469;28;20504;-76
2024/02/01 03:07:43;;;;;;;5.82;3.15;;;;;;;3.36;41.04;100013.56;4995226;28;20136;-75
2024/02/01 03:10:08;;;;;;;5.35;3.40;;;;;;;3.34;41.38;100003.28;4963065;28;20488;-75
2024/02/01 03:12:34;;;;;;;8.43;3.60;;;;;;;3.32;41.45;100005.06;4978472;28;20069;-75
2024/02/01 03:14:59;;;;;;;7.25;3.95;;;;;;;3.30;41.27;99996.50;4994641;28;20128;-75
2024/02/01 03:17:25;;;;;;;5.25;3.15;;;;;;;3.24;41.17;99988.91;4979152;28;20038;-74
2024/02/01 03:19:50;;;;;;;6.93;3.55;;;;;;;3.27;41.36;99994.00;4995199;28;20046;-75
2024/02/01 03:22:20;;;;;;;6.55;4.05;;;;;;;3.20;41.61;99983.00;4995059;28;20104;-74
2024/02/01 03:24:46;;;;;;;8.00;3.80;;;;;;;3.24;41.78;99992.38;4995502;28;20599;-75
2024/02/01 03:27:12;;;;;;;6.72;4.13;;;;;;;3.22;41.63;99991.53;4978836;28;20044;-74
2024/02/01 03:29:38;;;;;;;5.82;3.60;;;;;;;3.20;41.56;99983.00;4978729;28;20034;-75
2024/02/01 03:32:05;;;;;;;6.78;3.97;;;;;;;3.21;41.58;99991.56;4978508;28;20398;-74
2024/02/01 03:34:34;;;;;;;7.32;3.78;;;;;;;3.12;41.90;99971.19;4994890;28;20069;-75
2024/02/01 03:37:01;;;;;;;9.77;4.63;;;;;;;3.13;41.94;99981.47;4978846;28;20041;-76
2024/02/01 03:39:27;;;;;;;6.95;4.38;;;;;;;3.15;41.78;99992.59;4978805;28;20030;-78
2024/02/01 03:41:54;;;;;;;7.10;4.10;;;;;;;3.09;42.00;99985.00;4994517;28;20409;-74
2024/02/01 03:44:19;;;;;;;7.07;3.95;;;;;;;3.07;42.06;99989.38;4955472;28;20039;-75
2024/02/01 03:46:45;;;;;;;9.35;4.10;;;;;;;3.12;41.77;99999.56;4976215;28;20049;-76
2024/02/01 03:49:10;;;;;;;7.03;3.97;;;;;;;3.06;41.91;99990.25;4968569;28;20049;-75
2024/02/01 03:51:36;;;;;;;6.57;4.07;;;;;;;3.09;42.31;99985.00;4978301;28;20120;-76
2024/02/01 03:54:08;;;;;;;7.57;3.95;;;;;;;3.10;42.30;99996.16;4978772;28;20067;-76
2024/02/01 03:56:40;;;;;;;8.13;3.70;;;;;;;3.07;42.13;99991.94;4977419;28;20039;-75
2024/02/01 03:59:09;;;;;;;7.40;4.00;;;;;;;3.05;42.02;99981.66;4959548;28;20166;-76
2024/02/01 04:01:35;;;;;;;8.20;3.83;;;;;;;3.06;42.12;99985.09;4943636;28;20069;-76
2024/02/01 04:04:01;;;;;;;7.18;3.72;;;;;;;3.04;42.31;99973.97;4958972;28;20487;-76
2024/02/01 04:06:27;;;;;;;8.30;3.75;;;;;;;2.97;42.02;99962.09;4974414;28;20110;-76
2024/02/01 04:08:53;;;;;;;8.02;3.42;;;;;;;3.00;42.28;99975.75;4958948;28;20043;-76
2024/02/01 04:11:18;;;;;;;6.78;3.50;;;;;;;2.99;42.41;99976.66;4958972;28;20038;-77
2024/02/01 04:13:44;;;;;;;5.85;3.63;;;;;;;2.99;42.49;99979.25;4959566;28;20054;-75
2024/02/01 04:16:09;;;;;;;4.65;3.25;;;;;;;2.99;42.28;99979.25;4975095;28;20050;-75
2024/02/01 04:18:35;;;;;;;8.25;4.38;;;;;;;2.92;42.62;99977.69;4974734;28;20045;-76
2024/02/01 04:21:01;;;;;;;7.88;4.03;;;;;;;2.92;42.18;99982.00;4959192;28;20046;-75
2024/02/01 04:23:26;;;;;;;7.45;3.88;;;;;;;2.95;42.41;99993.09;4959143;28;20034;-76
2024/02/01 04:25:52;;;;;;;6.78;4.00;;;;;;;2.88;42.58;99991.56;4992344;28;20050;-76
2024/02/01 04:28:18;;;;;;;7.40;4.50;;;;;;;2.88;42.21;99992.41;4959296;28;20038;-77
2024/02/01 04:30:50;;;;;;;5.88;3.67;;;;;;;2.89;42.42;99994.09;4958892;28;20038;-77
2024/02/01 04:33:22;;;;;;;8.90;4.25;;;;;;;2.90;42.67;99997.53;4946462;28;20038;-78
2024/02/01 04:35:48;;;;;;;6.15;3.75;;;;;;;2.84;42.21;99990.75;4952599;28;20137;-76
2024/02/01 04:38:13;;;;;;;7.03;3.78;;;;;;;2.89;42.58;100003.56;4966653;28;20030;-77
2024/02/01 04:40:39;;;;;;;5.60;3.63;;;;;;;2.86;42.67;100003.63;4982801;28;20073;-76
2024/02/01 04:43:05;;;;;;;5.70;3.70;;;;;;;2.86;42.22;100006.19;4974733;28;20189;-76
2024/02/01 04:45:31;;;;;;;6.40;3.80;;;;;;;2.84;42.31;100007.97;4976650;28;20113;-78
2024/02/01 04:47:57;;;;;;;7.63;3.67;;;;;;;2.82;42.60;100014.91;4961833;28;20057;-76
2024/02/01 04:50:23;;;;;;;4.55;2.97;;;;;;;2.88;53.88;100007.03;4979299;28;20502;-83
2024/02/01 04:52:48;;;;;;;5.22;3.08;;;;;;;3.12;54.98;100023.63;4947179;28;20086;-70
2024/02/01 04:55:14;;;;;;;6.20;3.42;;;;;;;3.14;52.44;100008.13;4978293;28;20040;-76
2024/02/01 04:57:40;;;;;;;6.25;3.60;;;;;;;3.06;51.07;100016.88;4995722;28;20035;-76
2024/02/01 05:00:16;;;;;;;8.57;4.25;;;;;;;3.13;52.07;100003.81;4946404;28;20069;-76
2024/02/01 05:02:42;;;;;;;5.55;3.72;;;;;;;3.15;56.15;100007.25;4978017;28;20038;-76
2024/02/01 05:05:10;;;;;;;5.97;4.07;;;;;;;3.09;53.64;99995.31;4974698;28;20097;-74
2024/02/01 05:07:35;;;;;;;8.27;4.45;;;;;;;3.10;52.58;100006.47;4964521;28;20111;-76
2024/02/01 05:10:01;;;;;;;7.20;4.80;;;;;;;3.04;51.12;99995.44;4965104;28;20457;-75
2024/02/01 05:12:26;;;;;;;8.90;5.32;;;;;;;3.03;49.93;99998.06;4981065;28;20159;-79
2024/02/01 05:14:52;;;;;;;9.52;5.35;;;;;;;2.94;49.56;99987.97;4980288;28;20074;-76
2024/02/01 05:17:17;;;;;;;7.28;4.60;;;;;;;3.03;51.54;100001.47;5013934;28;20417;-82
2024/02/01 05:19:43;;;;;;;7.03;3.95;;;;;;;2.95;51.20;99989.66;4982425;28;20061;-80
2024/02/01 05:22:09;;;;;;;6.53;4.25;;;;;;;3.02;50.46;100004.09;4965379;28;20037;-80
2024/02/01 05:24:34;;;;;;;8.50;4.75;;;;;;;2.97;50.09;100001.63;4981492;28;20072;-78
2024/02/01 05:27:07;;;;;;;6.80;4.18;;;;;;;2.99;48.96;100006.75;4965586;28;20069;-71
2024/02/01 05:29:33;;;;;;;10.57;5.20;;;;;;;2.93;48.89;99994.03;5014732;28;20100;-71
2024/02/01 05:31:58;;;;;;;7.07;4.50;;;;;;;2.90;48.02;99997.53;4997053;28;20414;-73
2024/02/01 05:34:24;;;;;;;8.73;4.88;;;;;;;2.96;47.67;100005.13;4980778;28;20033;-71
2024/02/01 05:36:51;;;;;;;8.07;5.05;;;;;;;2.96;47.13;100005.13;4996529;28;20046;-71
2024/02/01 05:39:26;;;;;;;8.70;5.03;;;;;;;2.93;47.11;99992.28;4980869;28;20042;-72
2024/02/01 05:42:04;;;;;;;5.97;4.40;;;;;;;2.92;46.58;99988.00;4996747;28;20048;-72
2024/02/01 05:44:30;;;;;;;9.27;5.13;;;;;;;3.03;46.21;100001.47;4982176;28;20120;-71
2024/02/01 05:46:56;;;;;;;8.07;5.05;;;;;;;3.16;45.75;99993.44;4996857;28;20038;-72
2024/02/01 05:49:22;;;;;;;7.32;4.80;;;;;;;3.25;45.70;99999.19;4980044;28;20409;-73
2024/02/01 05:51:49;;;;;;;9.60;5.70;;;;;;;3.39;44.81;99993.69;4980626;28;20060;-73
2024/02/01 05:54:14;;;;;;;9.13;5.25;;;;;;;3.51;44.94;100000.25;4997076;28;20196;-73
2024/02/01 05:56:42;;;;;;;9.38;5.35;;;;;;;3.57;44.16;99981.16;4996144;28;20553;-73
2024/02/01 05:59:15;;;;;;;7.47;4.97;;;;;;;3.74;44.22;99983.28;4981164;28;20037;-73
2024/02/01 06:01:41;;;;;;;11.73;5.22;;;;;;;3.91;43.77;99991.38;4981973;28;20077;-73
2024/02/01 06:04:07;;;;;;;7.90;5.13;;;;;;;4.15;43.35;99982.06;4996582;28;20045;-74
2024/02/01 06:06:37;;;;;;;7.82;5.20;;;;;;;4.46;42.22;99985.44;4980138;28;20113;-73
2024/02/01 06:09:04;;;;;;;8.70;5.07;;;;;;;4.85;41.92;99980.75;4963538;28;20046;-72
2024/02/01 06:11:29;;;;;;;8.35;4.82;;;;;;;5.40;40.85;99985.78;5013953;28;20026;-71
2024/02/01 06:13:55;;;;;;;10.02;5.32;;;;;;;5.91;40.33;99989.16;4980515;28;20434;-72
2024/02/01 06:16:20;;;;;;;10.00;5.32;;;;;;;6.64;39.21;99997.66;4963930;28;20497;-72
2024/02/01 06:18:46;;;;;;;8.10;5.18;;;;;;;7.36;38.30;100003.38;5013660;28;20470;-72
2024/02/01 06:21:16;;;;;;;10.52;4.65;;;;;;;8.09;37.26;100006.22;4980297;28;20038;-71
2024/02/01 06:23:42;;;;;;;9.27;4.65;;;;;;;8.77;35.98;99997.88;5012377;28;20120;-72
2024/02/01 06:26:07;;;;;;;9.23;4.55;;;;;;;9.41;35.33;99989.44;4994518;28;20048;-72
2024/02/01 06:28:33;;;;;;;8.82;5.20;;;;;;;10.11;33.88;99997.06;4995708;28;20045;-72
2024/02/01 06:30:59;;;;;;;8.63;4.53;;;;;;;10.87;32.52;99998.13;4979823;28;20450;-72
2024/02/01 06:33:28;;;;;;;6.07;4.43;;;;;;;11.66;31.13;99990.91;4977692;28;20064;-73
2024/02/01 06:35:55;;;;;;;5.90;4.15;;;;;;;12.52;29.73;99990.78;4996521;28;20557;-73
2024/02/01 06:38:35;;;;;;;7.72;4.60;;;;;;;13.45;28.61;99995.22;5013250;28;20038;-73
2024/02/01 06:41:17;;;;;;;10.68;4.57;;;;;;;14.40;26.82;99985.91;4992124;28;20113;-73
2024/02/01 06:44:09;;;;;;;7.50;4.47;;;;;;;15.55;25.19;99999.34;4985224;28;20084;-73
2024/02/01 06:52:03;;;;;;;5.88;4.28;;;;;;;18.77;20.86;99992.81;4978337;28;20050;-71
2024/02/01 06:54:50;;;;;;;7.50;4.13;;;;;;;19.66;19.80;99984.63;4980011;28;20405;-72
2024/02/01 06:57:18;;;;;;;8.07;4.10;;;;;;;20.62;18.73;99988.72;4998559;28;20132;-71
2024/02/01 07:02:47;;;;;;;10.82;4.65;;;;;;;22.44;16.88;99987.97;4998192;28;20037;-71
2024/02/01 07:05:25;;;;;;;8.45;5.55;;;;;;;23.14;16.13;99974.25;4967621;28;20482;-71
2024/02/01 07:08:02;;;;;;;9.25;6.10;;;;;;;23.94;15.26;99981.38;4980814;28;20098;-73
2024/02/01 07:10:43;;;;;;;12.20;5.68;;;;;;;24.74;14.83;99974.88;4980982;28;20034;-71
2024/02/01 07:13:21;;;;;;;10.77;6.22;;;;;;;25.46;14.19;99968.25;4993965;28;20042;-75
2024/02/01 07:16:04;;;;;;;11.80;6.05;;;;;;;25.95;13.54;99976.69;4982630;28;20058;-78
2024/02/01 07:18:30;;;;;;;9.40;3.13;;;;;;;26.45;20.82;99975.00;4957279;28;20046;-80
2024/02/01 07:20:58;;;;;;;10.77;3.10;;;;;;;26.63;20.39;99977.25;4976416;28;20046;-76
2024/02/01 07:23:48;;;;;;;;;;;;;;;26.49;19.10;99970.13;4979433;28;20046;-76
2024/02/01 07:26:35;;;;;;;10.13;5.18;;;;;;;26.28;17.45;99976.25;4992817;28;20008;-76
2024/02/01 07:57:36;;;;;;;8.70;5.65;;;;;;;24.93;16.41;99970.06;4984495;28;20124;-76
2024/02/01 07:59:47;;;;;;;10.57;5.50;;;;;;;22.15;27.93;99936.84;4938857;29;20046;-79
2024/02/01 08:02:34;;;;;;;14.10;6.15;;;;;;;22.26;27.43;99941.03;4936849;29;20427;-73
2024/02/01 08:07:57;;;;;;;14.98;6.85;;;;;;;22.54;26.36;99936.28;4926740;29;20048;-74
2024/02/01 08:10:23;;;;;;;11.93;7.30;;;;;;;22.62;25.93;99934.66;4886058;29;20409;-73
2024/02/01 08:12:49;;;;;;;13.88;7.55;;;;;;;22.65;25.65;99924.50;4944117;29;20155;-74
2024/02/01 08:15:18;;;;;;;16.85;7.55;;;;;;;22.72;25.72;99922.84;4951639;29;20134;-72
2024/02/01 08:17:47;;;;;;;12.35;7.00;;;;;;;22.85;25.96;99908.16;4951572;29;20090;-73
2024/02/01 08:20:14;;;;;;;9.85;6.10;;;;;;;22.95;25.33;99914.16;4952618;28;20055;-76
2024/02/01 08:22:41;;;;;;;9.57;5.82;;;;;;;23.07;25.59;99909.28;4954645;29;20447;-74
2024/02/01 08:25:07;;;;;;;8.30;5.60;;;;;;;23.18;25.66;99900.97;4955448;28;20046;-78
2024/02/01 08:27:34;;;;;;;11.82;6.40;;;;;;;23.25;25.37;99904.63;4979327;28;20027;-79
2024/02/01 08:30:12;;;;;;;10.82;6.68;;;;;;;23.32;24.88;99902.09;4963194;28;20056;-80
2024/02/01 08:32:39;;;;;;;8.57;5.93;;;;;;;23.37;24.61;99912.25;4949888;28;20577;-78
2024/02/01 08:35:10;;;;;;;11.38;6.13;;;;;;;23.39;24.63;99904.91;4961221;28;20042;-77
2024/02/01 08:37:44;;;;;;;12.13;6.85;;;;;;;23.41;24.33;99908.25;4978600;28;20038;-78
2024/02/01 08:40:17;;;;;;;10.82;6.38;;;;;;;23.42;23.99;99905.41;4957886;28;20081;-79
2024/02/01 08:42:50;;;;;;;15.95;7.18;;;;;;;23.34;23.50;99899.28;4982436;28;20034;-79
2024/02/01 08:45:16;;;;;;;11.13;7.13;;;;;;;23.29;23.90;99895.31;4972308;28;20092;-80
2024/02/01 08:47:44;;;;;;;10.63;6.72;;;;;;;23.32;23.68;99888.78;4961988;28;20076;-78
2024/02/01 08:50:10;;;;;;;15.77;8.48;;;;;;;23.41;22.05;99895.75;4978943;28;20125;-79
2024/02/01 08:52:45;;;;;;;18.35;8.90;;;;;;;23.43;20.81;99895.59;4962423;28;20058;-84
2024/02/01 08:55:15;;;;;;;18.70;9.77;;;;;;;23.48;19.89;99888.75;4979046;28;20046;-76
2024/02/01 08:57:41;;;;;;;18.02;10.15;;;;;;;23.48;18.69;99878.09;4979186;28;20080;-76
2024/02/01 09:00:21;;;;;;;20.17;10.73;;;;;;;23.51;18.14;99876.06;4992480;28;20033;-76
2024/02/01 09:03:05;;;;;;;19.30;10.38;;;;;;;23.51;17.73;99868.06;4980138;28;20054;-73
2024/02/01 09:05:34;;;;;;;17.00;10.80;;;;;;;23.57;17.24;99865.53;4960714;28;20502;-77
2024/02/01 09:08:04;;;;;;;22.75;10.80;;;;;;;23.46;17.18;99865.94;4997985;28;20553;-77
2024/02/01 09:10:31;;;;;;;23.63;10.65;;;;;;;23.54;16.99;99851.75;4981468;28;20113;-79
2024/02/01 09:12:56;;;;;;;20.35;10.65;;;;;;;23.81;16.74;99858.41;4965738;28;20421;-77
2024/02/01 09:15:22;;;;;;;28.77;10.82;;;;;;;24.11;16.27;99850.59;4975003;28;20505;-77
2024/02/01 09:17:47;;;;;;;26.13;11.45;;;;;;;24.47;15.81;99850.81;4981333;28;20069;-76
2024/02/01 09:20:23;;;;;;;28.38;12.35;;;;;;;24.76;15.63;99830.53;4965246;28;20485;-76
2024/02/01 09:22:53;;;;;;;23.55;11.02;;;;;;;25.15;15.56;99837.47;4982050;28;20040;-75
2024/02/01 09:25:22;;;;;;;24.77;11.70;;;;;;;25.71;14.89;99831.56;4982064;28;20030;-75
2024/02/01 09:27:49;;;;;;;20.33;10.40;;;;;;;26.51;14.42;99832.34;4981827;28;20501;-76
2024/02/01 09:30:17;;;;;;;24.83;10.63;;;;;;;27.44;13.76;99839.34;4997882;28;20034;-79
2024/02/01 09:32:42;;;;;;;;;;;;;;;28.27;12.84;99822.19;4981183;28;20417;-77
2024/02/01 09:35:09;;;;;;;17.73;10.25;;;;;;;29.14;12.32;99824.75;4981258;28;19910;-76
2024/02/01 09:37:35;;;;;;;24.73;10.30;;;;;;;29.58;12.07;99810.50;4997731;28;20490;-75
2024/02/01 09:40:01;;;;;;;17.83;9.57;;;;;;;29.60;11.80;99810.28;4964923;28;20076;-76
2024/02/01 09:42:26;;;;;;;13.18;8.70;;;;;;;28.70;12.39;99802.94;4980677;28;20528;-77
2024/02/01 09:44:56;;;;;;;17.10;8.68;;;;;;;27.68;13.00;99800.41;4980692;28;20042;-76
2024/02/01 09:47:24;;;;;;;12.60;8.23;;;;;;;26.72;13.63;99803.88;4997523;28;20034;-77
2024/02/01 09:49:49;;;;;;;18.30;8.75;;;;;;;26.27;14.38;99790.78;4981282;28;20096;-76
2024/02/01 09:52:15;;;;;;;17.38;8.88;;;;;;;25.96;14.63;99794.59;4970072;28;20046;-77
2024/02/01 09:54:40;;;;;;;14.65;9.20;;;;;;;26.07;14.58;99785.25;4961870;28;20429;-77
2024/02/01 09:57:14;;;;;;;15.02;8.93;;;;;;;26.46;14.48;99775.06;4977702;28;20104;-77
2024/02/01 09:59:40;;;;;;;17.75;9.25;;;;;;;26.99;14.08;99778.06;4963744;28;20046;-76
2024/02/01 10:02:08;;;;;;;15.35;9.23;;;;;;;27.19;13.53;99772.00;4946125;28;20042;-76
2024/02/01 10:04:33;;;;;;;13.80;8.73;;;;;;;27.27;13.70;99766.44;4977954;28;20034;-77
2024/02/01 10:06:59;;;;;;;14.85;8.35;;;;;;;26.92;13.96;99755.78;4945457;28;20065;-77
2024/02/01 10:09:25;;;;;;;14.20;7.85;;;;;;;26.54;14.01;99753.50;4961407;28;20069;-77
2024/02/01 10:11:51;;;;;;;13.32;7.53;;;;;;;26.68;14.13;99751.75;4945320;28;20050;-78
2024/02/01 10:14:17;;;;;;;12.38;8.00;;;;;;;26.51;14.09;99746.66;4961517;28;20065;-77
2024/02/01 10:16:42;;;;;;;13.77;7.05;;;;;;;26.48;13.97;99731.00;4945036;28;20489;-76
2024/02/01 10:19:08;;;;;;;11.88;6.93;;;;;;;26.41;14.18;99729.31;4945580;28;20046;-77
2024/02/01 10:21:35;;;;;;;13.88;7.35;;;;;;;26.08;14.23;99728.06;4945016;28;20049;-76
2024/02/01 10:24:07;;;;;;;11.20;7.55;;;;;;;25.90;14.41;99723.16;4945233;28;20414;-77
2024/02/01 10:26:32;;;;;;;14.60;8.50;;;;;;;25.52;14.50;99715.38;4977285;28;20691;-77
2024/02/01 10:28:58;;;;;;;12.32;7.78;;;;;;;25.34;14.67;99715.00;4961393;28;20034;-77
2024/02/01 10:31:23;;;;;;;13.18;7.18;;;;;;;25.21;14.87;99710.31;4960884;28;20042;-77
2024/02/01 10:33:49;;;;;;;13.43;7.47;;;;;;;24.86;15.30;99710.09;4960794;28;20039;-76
2024/02/01 10:36:23;;;;;;;14.55;7.68;;;;;;;24.57;15.38;99717.13;4944591;28;20038;-76
2024/02/01 10:38:50;;;;;;;10.73;7.05;;;;;;;24.23;15.79;99706.94;4961449;28;20030;-77
2024/02/01 10:41:17;;;;;;;13.85;7.55;;;;;;;23.96;15.95;99704.69;4977004;28;20042;-77
2024/02/01 10:43:44;;;;;;;10.85;7.38;;;;;;;23.65;16.21;99694.91;4961222;28;20035;-76
2024/02/01 10:46:18;;;;;;;12.57;7.57;;;;;;;23.42;15.99;99683.44;4944589;28;20502;-76
2024/02/01 10:49:03;;;;;;;13.27;7.03;;;;;;;23.15;16.40;99676.78;4961964;28;20031;-76
2024/02/01 10:51:29;;;;;;;10.90;6.90;;;;;;;23.14;16.41;99673.31;4945991;28;20061;-77
2024/02/01 10:53:55;;;;;;;11.77;6.82;;;;;;;22.85;16.53;99669.44;4960941;28;20038;-77
2024/02/01 10:56:20;;;;;;;12.07;6.75;;;;;;;22.65;16.68;99666.34;4976166;28;20050;-76
2024/02/01 10:58:51;;;;;;;8.88;6.00;;;;;;;22.47;16.86;99663.94;4959985;28;20039;-79
2024/02/01 11:01:18;;;;;;;9.88;5.97;;;;;;;22.31;16.98;99648.00;4960392;28;20108;-75
2024/02/01 11:03:47;;;;;;;11.97;6.20;;;;;;;22.16;16.93;99648.69;4960299;28;20097;-77
2024/02/01 11:06:14;;;;;;;9.70;6.57;;;;;;;22.11;17.24;99652.88;4975949;28;20645;-76
2024/02/01 11:08:40;;;;;;;9.65;6.38;;;;;;;22.02;17.32;99638.75;4944093;28;20045;-77
2024/02/01 11:11:16;;;;;;;9.70;5.97;;;;;;;21.92;17.53;99636.28;4960579;28;20107;-77
2024/02/01 11:13:43;;;;;;;8.10;5.88;;;;;;;21.53;18.00;99622.88;4962911;28;20038;-77
2024/02/01 11:16:08;;;;;;;12.38;6.10;;;;;;;21.41;17.83;99624.97;4960421;28;20073;-78
2024/02/01 11:18:36;;;;;;;10.05;6.10;;;;;;;21.42;17.99;99616.03;4943810;28;20034;-78
2024/02/01 11:21:06;;;;;;;10.80;5.60;;;;;;;21.23;18.13;99617.19;4959937;28;20035;-79
2024/02/01 11:23:42;;;;;;;12.63;6.00;;;;;;;21.07;18.46;99616.16;4960226;28;20038;-77
2024/02/01 11:26:15;;;;;;;7.78;5.55;;;;;;;20.76;18.42;99607.94;4944731;28;20042;-76
2024/02/01 11:28:40;;;;;;;7.47;5.45;;;;;;;20.59;18.66;99607.06;4977186;28;20555;-77
2024/02/01 11:31:06;;;;;;;10.90;5.93;;;;;;;20.38;18.83;99595.03;4976026;28;20046;-76
2024/02/01 11:33:32;;;;;;;8.13;5.90;;;;;;;20.21;19.25;99588.00;4975812;28;20046;-76
2024/02/01 11:35:57;;;;;;;10.10;6.03;;;;;;;20.11;19.34;99580.16;4959819;28;20508;-77
2024/02/01 11:38:25;;;;;;;8.98;6.15;;;;;;;19.96;19.35;99579.09;4943915;28;20121;-77
2024/02/01 11:40:51;;;;;;;10.77;5.60;;;;;;;19.76;19.58;99575.78;4959843;28;20034;-76
2024/02/01 11:43:16;;;;;;;9.10;5.70;;;;;;;19.65;19.86;99571.56;4943769;28;20041;-77
2024/02/01 11:45:53;;;;;;;8.82;5.30;;;;;;;19.40;20.13;99574.03;4943761;28;20073;-78
2024/02/01 11:48:22;;;;;;;10.52;5.35;;;;;;;19.14;20.48;99574.00;4977669;28;20042;-78
2024/02/01 11:50:53;;;;;;;10.45;5.80;;;;;;;19.00;20.43;99566.59;4960375;28;20117;-77
2024/02/01 11:53:19;;;;;;;8.98;5.75;;;;;;;18.81;20.37;99557.78;4960560;28;20050;-77
2024/02/01 11:55:44;;;;;;;10.60;5.55;;;;;;;18.59;20.79;99556.38;4974924;28;20057;-78
2024/02/01 11:58:12;;;;;;;10.27;5.60;;;;;;;18.37;21.07;99549.69;4975549;28;20045;-77
2024/02/01 12:00:38;;;;;;;8.23;5.55;;;;;;;18.18;21.17;99545.34;4959194;28;20051;-76
2024/02/01 12:03:05;;;;;;;7.32;5.00;;;;;;;18.05;21.33;99541.22;4975612;28;20042;-76
2024/02/01 12:05:31;;;;;;;9.70;5.30;;;;;;;17.85;21.55;99550.16;4943611;28;20410;-76
2024/02/01 12:07:59;;;;;;;10.48;5.50;;;;;;;17.73;21.67;99542.41;4942897;28;20551;-76
2024/02/01 12:10:24;;;;;;;7.90;5.28;;;;;;;17.55;21.96;99533.56;4959976;28;20038;-77
2024/02/01 12:12:50;;;;;;;8.27;5.35;;;;;;;17.46;22.03;99535.25;4943107;28;20047;-77